Time;durP1;ratioP1;P1;durP2;ratioP2;P2;SDS_P1;SDS_P2;PMS_P1;PMS_P2;Temp;Humidity;BMP_temperature;BMP_pressure;BME280_temperature;BME280_humidity;BME280_pressure;Samples;Min_cycle;Max_cycle;Signal;HPM_P1;HPM_P2
2023/08/17 00:00:13;;;;;;;1.73;1.08;;;16.20;99.90;;;;;;5125828;27;20074;-56
2023/08/17 00:02:41;;;;;;;3.92;1.30;;;16.20;99.90;;;;;;5105306;27;20067;-56
2023/08/17 00:05:07;;;;;;;5.25;1.40;;;16.20;99.90;;;;;;5124912;27;20069;-57
2023/08/17 00:07:34;;;;;;;4.70;1.90;;;16.20;99.90;;;;;;5125165;27;20595;-57
2023/08/17 00:10:00;;;;;;;2.38;1.60;;;16.20;99.90;;;;;;5123451;27;21158;-56
2023/08/17 00:12:26;;;;;;;4.68;1.65;;;16.20;99.90;;;;;;5103791;28;20132;-56
2023/08/17 00:14:52;;;;;;;3.72;1.88;;;16.10;99.90;;;;;;5121563;27;20055;-56
2023/08/17 00:17:19;;;;;;;3.65;1.77;;;16.10;99.90;;;;;;5125776;27;20130;-56
2023/08/17 00:19:44;;;;;;;3.78;1.40;;;16.10;99.90;;;;;;5104809;27;20071;-56
2023/08/17 00:22:10;;;;;;;3.85;1.88;;;16.10;99.90;;;;;;5125555;27;20063;-56
2023/08/17 00:24:36;;;;;;;5.03;1.60;;;16.10;99.90;;;;;;5123739;27;20055;-55
2023/08/17 00:27:03;;;;;;;4.18;1.70;;;16.10;99.90;;;;;;5105937;27;20074;-55
2023/08/17 00:29:35;;;;;;;2.17;1.02;;;16.10;99.90;;;;;;5124727;27;20051;-56
2023/08/17 00:32:01;;;;;;;3.00;1.65;;;16.10;99.90;;;;;;5107213;27;20055;-56
2023/08/17 00:34:27;;;;;;;5.15;1.90;;;16.10;99.90;;;;;;5125298;27;20117;-56
2023/08/17 00:36:53;;;;;;;3.28;1.63;;;16.10;99.90;;;;;;5102938;27;20056;-56
2023/08/17 00:39:19;;;;;;;2.47;1.15;;;16.10;99.90;;;;;;5125554;27;20058;-58
2023/08/17 00:41:45;;;;;;;2.30;1.52;;;16.10;99.90;;;;;;5120623;27;20412;-57
2023/08/17 00:44:11;;;;;;;7.10;1.55;;;16.10;99.90;;;;;;5123601;27;20054;-58
2023/08/17 00:46:38;;;;;;;2.83;1.35;;;16.10;99.90;;;;;;5123551;27;20555;-55
2023/08/17 00:49:04;;;;;;;2.05;1.38;;;16.10;99.90;;;;;;5102403;27;20063;-56
2023/08/17 00:51:34;;;;;;;2.17;1.80;;;16.10;99.90;;;;;;5125104;27;20408;-57
2023/08/17 00:54:01;;;;;;;2.00;1.73;;;16.10;99.90;;;;;;5122723;27;20054;-55
2023/08/17 00:56:28;;;;;;;2.42;1.60;;;16.10;99.90;;;;;;5124626;27;20062;-56
2023/08/17 00:58:55;;;;;;;2.92;1.40;;;16.10;99.90;;;;;;5103587;27;20131;-55
2023/08/17 01:01:22;;;;;;;3.60;1.83;;;16.00;99.90;;;;;;5124651;27;20055;-55
2023/08/17 01:03:47;;;;;;;6.75;2.20;;;16.10;99.90;;;;;;5122200;27;20059;-57
2023/08/17 01:06:13;;;;;;;5.78;1.58;;;16.10;99.90;;;;;;5105881;27;20059;-56
2023/08/17 01:08:40;;;;;;;6.70;1.77;;;16.00;99.90;;;;;;5104083;27;20054;-54
2023/08/17 01:11:33;;;;;;;4.18;2.10;;;16.10;99.90;;;;;;5101686;27;20077;-55
2023/08/17 01:14:20;;;;;;;3.17;1.38;;;16.00;99.90;;;;;;5122192;27;21012;-56
2023/08/17 01:17:03;;;;;;;2.22;1.63;;;16.00;99.90;;;;;;5121877;27;20538;-57
2023/08/17 01:22:05;;;;;;;2.97;1.30;;;16.00;99.90;;;;;;5121909;27;20047;-55
2023/08/17 01:24:34;;;;;;;3.15;1.33;;;15.90;99.90;;;;;;5124236;27;20203;-55
2023/08/17 01:27:00;;;;;;;3.25;1.63;;;15.90;99.90;;;;;;5121602;27;20086;-57
2023/08/17 01:29:26;;;;;;;1.85;1.15;;;15.80;99.90;;;;;;5124031;27;20091;-60
2023/08/17 01:32:06;;;;;;;4.05;2.08;;;15.80;99.90;;;;;;5103556;27;20512;-60
2023/08/17 01:34:44;;;;;;;5.13;1.60;;;15.70;99.90;;;;;;5123896;27;20051;-56
2023/08/17 01:37:11;;;;;;;2.60;1.30;;;15.70;99.90;;;;;;5122132;27;20059;-60
2023/08/17 01:39:43;;;;;;;2.88;1.45;;;15.60;99.90;;;;;;5121920;27;20500;-62
2023/08/17 01:42:10;;;;;;;3.00;1.88;;;15.60;99.90;;;;;;5122279;27;20133;-62
2023/08/17 01:44:36;;;;;;;6.22;1.90;;;15.60;99.90;;;;;;5122178;27;20090;-60
2023/08/17 01:47:01;;;;;;;4.68;1.70;;;15.50;99.90;;;;;;5123114;27;20086;-63
2023/08/17 01:49:27;;;;;;;2.75;1.58;;;15.50;99.90;;;;;;5123716;27;20059;-60
2023/08/17 01:51:53;;;;;;;4.07;1.52;;;15.50;99.90;;;;;;5080497;27;20185;-59
2023/08/17 01:54:19;;;;;;;4.80;1.42;;;15.50;99.90;;;;;;5123503;27;20051;-59
2023/08/17 01:56:44;;;;;;;2.08;1.52;;;15.50;99.90;;;;;;5120406;27;20062;-58
2023/08/17 01:59:10;;;;;;;2.42;1.33;;;15.40;99.90;;;;;;5123563;27;20063;-56
2023/08/17 02:01:36;;;;;;;4.35;1.77;;;15.40;99.90;;;;;;5102869;27;20059;-56
2023/08/17 02:04:02;;;;;;;4.35;1.77;;;15.40;99.90;;;;;;5121369;27;20070;-61
2023/08/17 02:06:29;;;;;;;6.32;1.95;;;15.40;99.90;;;;;;5123476;27;20103;-60
2023/08/17 02:08:54;;;;;;;4.13;1.45;;;15.40;99.90;;;;;;5121201;27;20059;-55
2023/08/17 02:11:20;;;;;;;3.85;1.77;;;15.30;99.90;;;;;;5122923;27;20058;-56
2023/08/17 02:13:46;;;;;;;3.28;1.52;;;15.30;99.90;;;;;;5101770;27;20051;-62
2023/08/17 02:16:12;;;;;;;5.18;1.70;;;15.30;99.90;;;;;;5123450;27;20055;-55
2023/08/17 02:18:37;;;;;;;3.50;2.00;;;15.30;99.90;;;;;;5121888;27;20054;-57
2023/08/17 02:21:03;;;;;;;5.38;2.42;;;15.20;99.90;;;;;;5099906;28;20390;-55
2023/08/17 02:23:29;;;;;;;3.17;1.55;;;15.20;99.90;;;;;;5123466;27;20055;-57
2023/08/17 02:25:54;;;;;;;3.13;1.85;;;15.10;99.90;;;;;;5120382;27;20063;-58
2023/08/17 02:28:20;;;;;;;4.68;2.00;;;15.20;99.90;;;;;;5122420;27;20062;-59
2023/08/17 02:30:47;;;;;;;7.70;2.63;;;15.10;99.90;;;;;;5101489;27;20062;-57
2023/08/17 02:33:13;;;;;;;2.47;1.45;;;15.10;99.90;;;;;;5123146;27;20059;-56
2023/08/17 02:35:38;;;;;;;4.90;1.60;;;16.00;99.90;;;;;;5102408;27;20058;-55
2023/08/17 02:38:04;;;;;;;5.40;2.03;;;15.10;99.90;;;;;;5103832;27;20142;-58
2023/08/17 02:40:33;;;;;;;5.03;2.00;;;15.10;99.90;;;;;;5103828;28;20074;-55
2023/08/17 02:42:59;;;;;;;5.53;1.58;;;15.10;99.90;;;;;;5101976;27;20123;-57
2023/08/17 02:45:25;;;;;;;2.72;1.40;;;15.10;99.90;;;;;;5104363;27;20058;-56
2023/08/17 02:47:50;;;;;;;4.50;2.00;;;15.10;99.90;;;;;;5101644;28;20067;-56
2023/08/17 02:50:16;;;;;;;4.85;2.40;;;15.10;99.90;;;;;;5122611;27;20138;-56
2023/08/17 02:52:42;;;;;;;4.13;1.92;;;15.20;99.90;;;;;;5120104;27;20111;-56
2023/08/17 02:55:08;;;;;;;6.95;2.25;;;15.10;99.90;;;;;;5122558;27;20500;-57
2023/08/17 02:57:34;;;;;;;3.00;1.67;;;15.10;99.90;;;;;;5121766;27;20043;-55
2023/08/17 03:00:00;;;;;;;2.22;1.45;;;15.10;99.90;;;;;;5117274;27;20060;-56
2023/08/17 03:02:26;;;;;;;2.55;1.20;;;15.20;99.90;;;;;;5119027;27;20075;-56
2023/08/17 03:04:52;;;;;;;3.58;1.38;;;15.20;99.90;;;;;;5119982;27;20204;-59
2023/08/17 03:07:18;;;;;;;4.25;1.48;;;15.20;99.90;;;;;;5122185;27;20243;-57
2023/08/17 03:09:43;;;;;;;3.45;1.50;;;15.20;99.90;;;;;;5119154;27;20817;-55
2023/08/17 03:12:09;;;;;;;5.45;1.90;;;15.20;99.90;;;;;;5122533;28;20146;-56
2023/08/17 03:14:35;;;;;;;5.15;1.73;;;15.20;99.90;;;;;;5082598;27;1098999;-59
2023/08/17 03:17:01;;;;;;;2.10;1.45;;;15.20;99.90;;;;;;5121302;28;20055;-56
2023/08/17 03:19:26;;;;;;;4.45;1.58;;;15.20;99.90;;;;;;5104123;28;20051;-56
2023/08/17 03:21:52;;;;;;;5.53;2.65;;;15.20;99.90;;;;;;5119737;27;20059;-56
2023/08/17 03:24:18;;;;;;;3.67;1.67;;;15.20;99.90;;;;;;5122277;27;20059;-57
2023/08/17 03:26:43;;;;;;;3.83;2.10;;;15.20;99.90;;;;;;5117782;27;20054;-56
2023/08/17 03:29:09;;;;;;;3.70;1.77;;;15.20;99.90;;;;;;5122300;27;20512;-57
2023/08/17 03:31:35;;;;;;;4.45;1.95;;;15.20;99.90;;;;;;5120906;27;20415;-58
2023/08/17 03:34:01;;;;;;;4.57;2.50;;;15.10;99.90;;;;;;5120843;27;20055;-57
2023/08/17 03:36:26;;;;;;;4.43;2.00;;;15.20;99.90;;;;;;5122014;27;20059;-55
2023/08/17 03:38:52;;;;;;;4.70;1.65;;;15.10;99.90;;;;;;5116374;27;20047;-56
2023/08/17 03:41:18;;;;;;;3.90;2.17;;;15.10;99.90;;;;;;5122348;27;20055;-57
2023/08/17 03:43:44;;;;;;;6.50;2.70;;;15.00;99.90;;;;;;5119418;27;20090;-56
2023/08/17 03:46:10;;;;;;;4.45;2.53;;;14.30;99.90;;;;;;5122543;27;20130;-57
2023/08/17 03:48:35;;;;;;;5.10;1.80;;;15.00;99.90;;;;;;5121292;27;20059;-57
2023/08/17 03:51:01;;;;;;;3.60;1.98;;;15.00;99.90;;;;;;5120916;27;20131;-59
2023/08/17 03:53:27;;;;;;;4.43;1.70;;;14.90;99.90;;;;;;5122157;27;20066;-59
2023/08/17 03:55:53;;;;;;;12.50;2.15;;;15.00;99.90;;;;;;5119147;27;20047;-58
2023/08/17 03:58:18;;;;;;;3.53;1.77;;;14.90;99.90;;;;;;5122244;27;20051;-60
2023/08/17 04:00:51;;;;;;;2.95;1.92;;;14.90;99.90;;;;;;5119384;27;20055;-58
2023/08/17 04:03:17;;;;;;;6.43;2.25;;;14.90;99.90;;;;;;5122212;27;20066;-60
2023/08/17 04:05:43;;;;;;;6.78;2.28;;;14.90;99.90;;;;;;5118745;28;20493;-58
2023/08/17 04:08:09;;;;;;;6.22;1.90;;;14.90;99.90;;;;;;5121605;27;20196;-56
2023/08/17 04:10:34;;;;;;;4.57;1.90;;;14.90;99.90;;;;;;5121149;27;20107;-57
2023/08/17 04:13:00;;;;;;;4.28;1.95;;;14.80;99.90;;;;;;5102050;27;21182;-57
2023/08/17 04:15:26;;;;;;;6.22;1.70;;;14.80;99.90;;;;;;5122147;27;20115;-57
2023/08/17 04:17:51;;;;;;;10.30;4.05;;;14.80;99.90;;;;;;5119748;27;20071;-56
2023/08/17 04:20:21;;;;;;;5.13;2.45;;;14.80;99.90;;;;;;5125477;27;20683;-56
2023/08/17 04:22:47;;;;;;;3.88;1.83;;;14.80;99.90;;;;;;5104225;27;20556;-56
2023/08/17 04:25:13;;;;;;;4.90;2.38;;;14.80;99.90;;;;;;5125263;27;20055;-56
2023/08/17 04:27:39;;;;;;;3.88;1.55;;;14.80;99.90;;;;;;5104893;27;20092;-56
2023/08/17 04:30:06;;;;;;;2.97;1.25;;;14.70;99.90;;;;;;5124590;27;20501;-55
2023/08/17 04:32:35;;;;;;;3.13;1.73;;;14.70;99.90;;;;;;5124520;27;20075;-56
2023/08/17 04:35:01;;;;;;;2.85;1.52;;;14.70;99.90;;;;;;5098842;27;20101;-56
2023/08/17 04:37:27;;;;;;;4.57;1.67;;;14.70;99.90;;;;;;5123473;27;20073;-58
2023/08/17 04:39:52;;;;;;;4.22;2.08;;;14.70;99.90;;;;;;5122430;27;20511;-56
2023/08/17 04:42:19;;;;;;;2.35;1.60;;;14.70;99.90;;;;;;5106607;27;20076;-61
2023/08/17 04:44:45;;;;;;;2.42;1.60;;;14.70;99.90;;;;;;5120329;27;20059;-60
2023/08/17 04:47:11;;;;;;;9.27;2.22;;;14.70;99.90;;;;;;5124699;27;20055;-60
2023/08/17 04:49:37;;;;;;;3.78;1.67;;;14.70;99.90;;;;;;5104764;27;20135;-62
2023/08/17 04:52:04;;;;;;;4.43;1.50;;;14.70;99.90;;;;;;5105852;27;20523;-58
2023/08/17 04:54:33;;;;;;;3.88;1.70;;;14.70;99.90;;;;;;5124738;27;20047;-57
2023/08/17 04:56:59;;;;;;;4.78;1.70;;;14.70;99.90;;;;;;5122573;27;20200;-60
2023/08/17 04:59:25;;;;;;;2.45;1.45;;;14.80;99.90;;;;;;5124966;27;20509;-61
2023/08/17 05:01:51;;;;;;;6.85;2.10;;;14.70;99.90;;;;;;5121568;27;20582;-55
2023/08/17 05:04:16;;;;;;;4.05;1.88;;;14.70;99.90;;;;;;5102600;28;20929;-55
2023/08/17 05:06:42;;;;;;;3.15;1.80;;;14.70;99.90;;;;;;5100888;28;20152;-55
2023/08/17 05:09:08;;;;;;;5.45;1.90;;;14.70;99.90;;;;;;5124769;27;20058;-57
2023/08/17 05:11:34;;;;;;;3.95;1.65;;;14.80;99.90;;;;;;5105163;27;20047;-56
2023/08/17 05:13:59;;;;;;;1.90;1.45;;;14.70;99.90;;;;;;5122867;27;20058;-58
2023/08/17 05:16:25;;;;;;;3.17;2.20;;;14.80;99.90;;;;;;5120487;27;20311;-62
2023/08/17 05:18:51;;;;;;;7.03;2.28;;;14.80;99.90;;;;;;5103268;27;20055;-56
2023/08/17 05:21:16;;;;;;;4.40;1.98;;;14.90;99.90;;;;;;5124111;27;20059;-58
2023/08/17 05:23:42;;;;;;;4.30;2.03;;;14.90;99.90;;;;;;5121726;27;20046;-56
2023/08/17 05:26:08;;;;;;;3.80;1.63;;;15.00;99.90;;;;;;5124112;27;20412;-56
2023/08/17 05:28:34;;;;;;;3.47;1.63;;;15.00;99.90;;;;;;5122799;27;20146;-57
2023/08/17 05:31:04;;;;;;;4.80;1.65;;;15.10;99.90;;;;;;5122559;27;20123;-58
2023/08/17 05:33:34;;;;;;;5.13;1.95;;;15.20;99.90;;;;;;5120080;27;20484;-56
2023/08/17 05:36:00;;;;;;;4.80;1.70;;;15.30;99.90;;;;;;5121654;27;20063;-56
2023/08/17 05:38:25;;;;;;;2.45;1.52;;;15.40;99.90;;;;;;5123114;27;20059;-58
2023/08/17 05:40:58;;;;;;;3.17;1.73;;;15.50;99.90;;;;;;5120097;27;20079;-56
2023/08/17 05:43:25;;;;;;;4.32;2.25;;;15.60;99.90;;;;;;5123379;27;20054;-59
2023/08/17 05:45:51;;;;;;;5.72;1.90;;;15.80;99.90;;;;;;5120221;27;20055;-57
2023/08/17 05:48:20;;;;;;;1.38;1.15;;;15.90;99.90;;;;;;5123548;27;20150;-57
2023/08/17 05:50:47;;;;;;;4.40;2.15;;;16.10;99.90;;;;;;5120994;27;20063;-56
2023/08/17 05:53:12;;;;;;;2.92;1.30;;;16.20;99.90;;;;;;5119829;27;20040;-56
2023/08/17 05:55:38;;;;;;;7.38;2.03;;;16.30;99.90;;;;;;5102888;27;20910;-56
2023/08/17 05:58:04;;;;;;;2.42;1.50;;;16.50;99.90;;;;;;5122768;27;20054;-58
2023/08/17 06:00:33;;;;;;;2.67;1.80;;;16.70;99.90;;;;;;5123070;27;20162;-56
2023/08/17 06:03:02;;;;;;;4.68;1.45;;;16.90;99.90;;;;;;5120856;27;20164;-57
2023/08/17 06:05:28;;;;;;;3.15;1.88;;;17.00;99.90;;;;;;5123304;27;20059;-55
2023/08/17 06:07:57;;;;;;;2.58;1.65;;;17.10;99.90;;;;;;5102091;27;20153;-60
2023/08/17 06:10:27;;;;;;;3.78;1.70;;;17.30;99.90;;;;;;5123113;27;20057;-60
2023/08/17 06:12:56;;;;;;;4.55;1.50;;;17.40;99.90;;;;;;5120420;27;20055;-63
2023/08/17 06:15:23;;;;;;;4.82;1.50;;;17.50;99.90;;;;;;5119449;27;20126;-56
2023/08/17 06:17:49;;;;;;;1.75;1.08;;;17.50;99.90;;;;;;5119295;27;20059;-56
2023/08/17 06:20:16;;;;;;;3.08;1.20;;;17.50;99.90;;;;;;5121990;27;20058;-57
2023/08/17 06:22:41;;;;;;;4.82;1.40;;;17.40;99.90;;;;;;5120385;27;20079;-56
2023/08/17 06:25:08;;;;;;;4.00;1.38;;;17.40;99.90;;;;;;5104125;27;20055;-56
2023/08/17 06:27:35;;;;;;;5.30;1.67;;;17.40;99.90;;;;;;5121678;27;20051;-56
2023/08/17 06:30:04;;;;;;;3.08;1.20;;;17.40;99.90;;;;;;5121348;27;20112;-57
2023/08/17 06:32:33;;;;;;;4.82;1.25;;;17.40;99.90;;;;;;5122821;27;20055;-56
2023/08/17 06:34:59;;;;;;;4.25;1.35;;;17.60;99.90;;;;;;5107511;27;20055;-56
2023/08/17 06:37:25;;;;;;;4.45;1.10;;;17.60;99.90;;;;;;5100652;28;20085;-55
2023/08/17 06:39:50;;;;;;;4.90;1.20;;;17.70;99.90;;;;;;5098022;28;20052;-56
2023/08/17 06:42:16;;;;;;;4.15;2.08;;;17.70;99.90;;;;;;5100017;28;20059;-55
2023/08/17 06:44:42;;;;;;;7.97;1.42;;;17.90;99.90;;;;;;5073108;28;20053;-55
2023/08/17 06:47:07;;;;;;;5.55;1.85;;;17.90;99.90;;;;;;5098280;28;20068;-55
2023/08/17 06:49:34;;;;;;;8.23;1.40;;;18.00;99.90;;;;;;5097494;28;20083;-54
2023/08/17 06:51:59;;;;;;;2.63;1.30;;;18.00;99.90;;;;;;5088639;28;20201;-56
2023/08/17 06:54:25;;;;;;;3.22;1.23;;;18.10;99.90;;;;;;5097021;28;20191;-56
2023/08/17 06:56:51;;;;;;;5.05;1.10;;;18.00;99.90;;;;;;5080210;28;20048;-56
2023/08/17 06:59:16;;;;;;;3.85;1.05;;;18.00;99.90;;;;;;5101816;28;20732;-55
2023/08/17 07:01:42;;;;;;;2.67;1.08;;;18.10;99.90;;;;;;5080677;28;20132;-55
2023/08/17 07:04:08;;;;;;;1.55;1.05;;;18.00;99.90;;;;;;5102109;28;20062;-57
2023/08/17 07:06:34;;;;;;;3.35;0.80;;;18.00;99.90;;;;;;5101157;28;20059;-55
2023/08/17 07:09:00;;;;;;;15.43;2.75;;;18.00;99.90;;;;;;5081089;28;20198;-56
2023/08/17 07:11:25;;;;;;;7.40;1.48;;;18.00;99.90;;;;;;5101879;28;20164;-56
2023/08/17 07:13:51;;;;;;;3.65;1.20;;;18.10;99.90;;;;;;5098453;28;20067;-56
2023/08/17 07:16:17;;;;;;;4.30;0.90;;;18.00;99.90;;;;;;5095320;28;20154;-56
2023/08/17 07:18:43;;;;;;;3.47;1.20;;;18.20;99.90;;;;;;5098955;28;20051;-56
2023/08/17 07:21:08;;;;;;;2.30;1.02;;;18.20;99.90;;;;;;5101343;28;20063;-56
2023/08/17 07:23:34;;;;;;;3.35;1.00;;;18.20;99.90;;;;;;5100146;28;20059;-56
2023/08/17 07:26:00;;;;;;;2.92;1.02;;;18.40;99.90;;;;;;5081409;28;20922;-56
2023/08/17 07:28:26;;;;;;;1.90;1.13;;;18.50;99.90;;;;;;5100429;28;20116;-57
2023/08/17 07:30:51;;;;;;;5.37;1.10;;;18.60;99.90;;;;;;5059533;28;1102820;-56
2023/08/17 07:33:17;;;;;;;4.55;0.90;;;18.60;99.90;;;;;;5101743;28;20051;-56
2023/08/17 07:35:42;;;;;;;1.77;0.88;;;18.60;99.90;;;;;;5099009;28;20879;-55
2023/08/17 07:38:08;;;;;;;3.55;1.00;;;18.60;99.90;;;;;;5101286;28;20102;-56
2023/08/17 07:40:34;;;;;;;3.22;0.80;;;18.70;99.90;;;;;;5100051;28;20054;-55
2023/08/17 07:43:01;;;;;;;1.90;0.88;;;18.70;99.90;;;;;;5099450;28;21229;-56
2023/08/17 07:45:27;;;;;;;2.05;0.82;;;18.70;99.90;;;;;;5101120;28;20047;-57
2023/08/17 07:47:53;;;;;;;4.30;1.00;;;18.80;99.90;;;;;;5099103;28;20070;-56
2023/08/17 07:50:19;;;;;;;2.78;1.20;;;18.90;99.90;;;;;;5100763;28;20048;-57
2023/08/17 07:52:45;;;;;;;0.73;0.60;;;18.90;99.90;;;;;;5101116;28;20051;-56
2023/08/17 07:55:11;;;;;;;4.82;0.90;;;19.10;99.90;;;;;;5104997;28;20795;-57
2023/08/17 07:57:37;;;;;;;2.33;0.70;;;19.10;99.90;;;;;;5103881;28;20109;-56
2023/08/17 08:00:03;;;;;;;2.55;0.80;;;19.20;99.90;;;;;;5082858;28;20051;-57
2023/08/17 08:02:29;;;;;;;2.45;0.95;;;19.20;99.90;;;;;;5086971;28;20059;-56
2023/08/17 08:04:54;;;;;;;3.00;0.80;;;19.20;99.90;;;;;;5099854;28;20066;-57
2023/08/17 08:07:20;;;;;;;1.88;1.05;;;19.00;99.90;;;;;;5093832;28;20060;-57
2023/08/17 08:09:46;;;;;;;1.30;0.68;;;19.00;99.90;;;;;;5094046;28;20051;-57
2023/08/17 08:12:11;;;;;;;4.53;1.35;;;19.10;99.90;;;;;;5101404;27;20059;-57
2023/08/17 08:14:37;;;;;;;2.15;0.80;;;19.10;99.90;;;;;;5089387;28;20059;-56
2023/08/17 08:17:03;;;;;;;1.05;0.80;;;19.20;99.90;;;;;;5086895;27;20087;-58
2023/08/17 08:19:28;;;;;;;1.92;1.00;;;19.30;99.90;;;;;;5091807;27;20155;-57
2023/08/17 08:21:54;;;;;;;2.65;1.10;;;19.30;99.90;;;;;;5095089;28;20063;-57
2023/08/17 08:24:19;;;;;;;1.80;0.82;;;19.30;99.90;;;;;;5090667;28;20143;-56
2023/08/17 08:26:45;;;;;;;3.75;1.00;;;19.30;99.90;;;;;;5100429;28;20052;-56
2023/08/17 08:29:11;;;;;;;4.25;1.13;;;19.40;99.90;;;;;;5097913;28;20517;-62
2023/08/17 08:31:36;;;;;;;1.02;0.70;;;19.60;99.90;;;;;;5097430;28;20096;-57
2023/08/17 08:34:02;;;;;;;2.38;1.08;;;19.80;99.90;;;;;;5101025;27;20143;-56
2023/08/17 08:36:28;;;;;;;1.73;0.90;;;20.00;99.90;;;;;;5103113;27;20060;-56
2023/08/17 08:38:54;;;;;;;7.45;1.75;;;20.10;99.90;;;;;;5101749;28;20557;-56
2023/08/17 08:41:19;;;;;;;5.80;1.35;;;20.30;99.90;;;;;;5100820;27;20061;-58
2023/08/17 08:43:45;;;;;;;1.63;0.70;;;20.20;99.90;;;;;;5097531;28;20424;-58
2023/08/17 08:46:12;;;;;;;1.63;0.80;;;20.50;99.90;;;;;;5094975;28;20050;-58
2023/08/17 08:48:41;;;;;;;2.47;0.90;;;20.30;99.90;;;;;;5101335;28;20073;-56
2023/08/17 08:51:10;;;;;;;1.88;0.75;;;20.30;99.90;;;;;;5098169;28;20051;-56
2023/08/17 08:53:44;;;;;;;4.03;0.60;;;20.70;99.90;;;;;;5102575;28;20055;-56
2023/08/17 08:56:14;;;;;;;2.80;0.65;;;20.80;99.90;;;;;;5101361;28;20154;-56
2023/08/17 08:58:41;;;;;;;1.58;0.75;;;20.90;99.90;;;;;;5121823;27;20466;-55
2023/08/17 09:01:10;;;;;;;2.45;0.80;;;21.00;99.90;;;;;;5122912;27;20043;-56
2023/08/17 09:03:36;;;;;;;0.95;0.85;;;21.20;99.90;;;;;;5117950;27;20516;-56
2023/08/17 09:06:04;;;;;;;3.10;1.10;;;21.60;99.90;;;;;;5122812;27;20929;-56
2023/08/17 09:08:33;;;;;;;4.32;1.02;;;21.90;99.90;;;;;;5123304;27;20047;-56
2023/08/17 09:10:59;;;;;;;1.77;1.23;;;22.10;99.90;;;;;;5121668;27;20142;-57
2023/08/17 09:13:25;;;;;;;1.75;0.98;;;21.80;99.90;;;;;;5120078;27;20051;-57
2023/08/17 09:15:50;;;;;;;2.97;1.08;;;21.70;99.90;;;;;;5118655;27;20729;-57
2023/08/17 09:18:17;;;;;;;4.05;0.80;;;21.40;99.90;;;;;;5123824;27;20524;-57
2023/08/17 09:20:47;;;;;;;1.35;0.80;;;21.60;99.90;;;;;;5119497;27;20059;-56
2023/08/17 09:23:15;;;;;;;3.78;0.95;;;22.10;99.90;;;;;;5116280;27;20057;-56
2023/08/17 09:25:42;;;;;;;6.57;1.35;;;22.50;99.90;;;;;;5120691;27;20771;-56
2023/08/17 09:28:14;;;;;;;4.20;1.48;;;22.50;99.90;;;;;;5123348;27;20055;-57
2023/08/17 09:30:54;;;;;;;2.88;0.70;;;22.80;99.90;;;;;;5122370;27;20055;-55
2023/08/17 09:33:21;;;;;;;1.65;0.73;;;22.90;99.90;;;;;;5117727;27;20503;-57
2023/08/17 09:35:48;;;;;;;3.55;0.95;;;22.70;99.90;;;;;;5120862;27;21809;-56
2023/08/17 09:38:14;;;;;;;2.95;1.45;;;22.60;99.90;;;;;;5123656;27;20059;-56
2023/08/17 09:40:40;;;;;;;4.53;1.05;;;22.70;99.90;;;;;;5121650;27;20077;-55
2023/08/17 09:43:06;;;;;;;3.05;0.95;;;22.50;99.90;;;;;;5123089;27;20447;-57
2023/08/17 09:48:00;;;;;;;4.18;0.90;;;22.40;99.90;;;;;;5121349;27;20112;-57
2023/08/17 09:50:26;;;;;;;3.35;1.05;;;22.20;99.90;;;;;;5123350;27;20148;-56
2023/08/17 09:52:54;;;;;;;2.88;1.05;;;21.80;99.90;;;;;;5119630;27;20092;-56
2023/08/17 09:55:22;;;;;;;5.72;1.13;;;21.60;99.90;;;;;;5120733;27;20053;-56
2023/08/17 09:57:52;;;;;;;1.38;0.82;;;21.60;99.90;;;;;;5120370;27;20065;-58
2023/08/17 10:00:21;;;;;;;3.03;0.90;;;21.50;99.90;;;;;;5121490;27;20103;-57
2023/08/17 10:02:51;;;;;;;1.60;0.70;;;21.40;99.90;;;;;;5118289;27;20138;-58
2023/08/17 10:05:19;;;;;;;1.83;0.95;;;21.40;99.90;;;;;;5122891;27;20112;-57
2023/08/17 10:07:50;;;;;;;4.78;1.02;;;21.60;99.90;;;;;;5120189;27;20057;-57
2023/08/17 10:10:22;;;;;;;2.00;1.17;;;21.70;99.90;;;;;;5118929;27;20051;-62
2023/08/17 10:13:08;;;;;;;14.57;1.40;;;21.90;99.90;;;;;;5119100;27;20074;-59
2023/08/17 10:15:38;;;;;;;4.45;0.90;;;22.20;99.90;;;;;;5120762;27;20050;-56
2023/08/17 10:18:29;;;;;;;2.20;0.98;;;22.60;99.90;;;;;;5102556;27;20100;-57
2023/08/17 10:21:01;;;;;;;6.05;1.60;;;22.90;99.90;;;;;;5118005;27;20520;-56
2023/08/17 10:23:28;;;;;;;3.67;0.98;;;22.70;99.90;;;;;;5119509;27;20435;-57
2023/08/17 10:25:53;;;;;;;7.18;1.45;;;22.70;99.90;;;;;;5100446;27;20054;-57
2023/08/17 10:28:21;;;;;;;11.70;2.88;;;23.50;99.90;;;;;;5120620;27;20047;-56
2023/08/17 10:30:48;;;;;;;4.38;1.40;;;24.40;99.90;;;;;;5119522;27;20059;-55
2023/08/17 10:33:14;;;;;;;3.92;0.93;;;24.70;99.90;;;;;;5122808;27;20134;-57
2023/08/17 10:35:42;;;;;;;4.53;1.08;;;24.90;99.90;;;;;;5119394;27;20154;-56
2023/08/17 10:38:08;;;;;;;2.25;1.35;;;24.70;99.90;;;;;;5119988;27;20104;-57
2023/08/17 10:40:41;;;;;;;2.45;1.10;;;24.00;99.90;;;;;;5119243;27;20742;-55
2023/08/17 10:43:07;;;;;;;7.32;1.30;;;24.20;99.90;;;;;;5117656;27;20059;-57
2023/08/17 10:45:35;;;;;;;4.18;1.25;;;24.00;99.90;;;;;;5096891;27;20145;-57
2023/08/17 10:48:07;;;;;;;5.28;1.52;;;24.40;99.90;;;;;;5117227;27;20047;-57
2023/08/17 10:50:37;;;;;;;1.58;1.00;;;24.60;99.90;;;;;;5117460;27;20062;-57
2023/08/17 10:53:08;;;;;;;2.20;0.85;;;25.10;99.90;;;;;;5115674;27;20059;-57
2023/08/17 10:55:44;;;;;;;2.58;1.40;;;25.10;99.90;;;;;;5081771;28;20055;-55
2023/08/17 10:58:13;;;;;;;3.83;1.20;;;25.40;99.90;;;;;;5095591;28;20059;-57
2023/08/17 11:00:39;;;;;;;3.13;1.17;;;25.10;99.90;;;;;;5110403;27;20221;-57
2023/08/17 11:03:11;;;;;;;1.45;0.90;;;25.40;99.90;;;;;;5099214;28;20070;-58
2023/08/17 11:05:52;;;;;;;3.40;1.38;;;25.60;99.90;;;;;;5086941;28;20087;-57
2023/08/17 11:08:29;;;;;;;4.93;2.20;;;25.80;99.90;;;;;;5096682;28;20065;-58
2023/08/17 11:11:04;;;;;;;5.30;2.15;;;24.70;99.90;;;;;;5097008;28;20072;-58
2023/08/17 11:13:36;;;;;;;5.72;2.17;;;24.60;99.90;;;;;;5099994;28;20056;-58
2023/08/17 11:16:04;;;;;;;8.57;2.88;;;24.70;99.90;;;;;;5098439;28;20062;-59
2023/08/17 11:20:56;;;;;;;4.15;1.60;;;24.50;99.90;;;;;;5098394;28;20051;-60
2023/08/17 11:23:24;;;;;;;2.95;1.30;;;24.70;99.90;;;;;;5100983;28;20402;-65
2023/08/17 11:25:52;;;;;;;2.45;1.25;;;25.10;99.90;;;;;;5098820;28;20047;-65
2023/08/17 11:28:18;;;;;;;3.97;2.00;;;24.30;99.90;;;;;;5085667;28;20097;-64
2023/08/17 11:30:44;;;;;;;3.58;1.38;;;24.50;99.90;;;;;;5094889;28;20052;-56
2023/08/17 11:33:10;;;;;;;3.55;1.65;;;24.90;99.90;;;;;;5105022;28;20098;-58
2023/08/17 11:35:37;;;;;;;3.10;1.60;;;25.30;99.90;;;;;;5104187;28;20051;-57
2023/08/17 11:38:03;;;;;;;5.90;3.35;;;25.90;99.90;;;;;;5095546;28;20558;-59
2023/08/17 11:40:33;;;;;;;7.28;1.80;;;26.80;99.90;;;;;;5104949;28;20082;-59
2023/08/17 11:42:59;;;;;;;1.58;1.05;;;26.90;99.90;;;;;;5108242;27;20058;-57
2023/08/17 11:45:26;;;;;;;2.65;1.00;;;27.60;99.90;;;;;;5126310;27;20047;-57
2023/08/17 11:47:52;;;;;;;3.03;1.50;;;27.30;99.90;;;;;;5122787;27;20500;-57
2023/08/17 11:50:18;;;;;;;4.43;1.05;;;28.90;99.90;;;;;;5054351;28;1111978;-60
2023/08/17 11:52:44;;;;;;;3.13;1.35;;;28.60;99.90;;;;;;5118876;27;20080;-56
2023/08/17 11:55:09;;;;;;;3.13;1.15;;;28.30;99.90;;;;;;5125670;27;20477;-60
2023/08/17 11:57:38;;;;;;;1.33;1.20;;;29.20;99.90;;;;;;5124115;27;20051;-57
2023/08/17 12:00:09;;;;;;;2.00;1.77;;;28.30;99.90;;;;;;5124100;27;20081;-57
2023/08/17 12:02:41;;;;;;;1.25;1.10;;;30.60;99.90;;;;;;5121449;27;20054;-57
2023/08/17 12:05:09;;;;;;;2.53;1.27;;;29.60;99.90;;;;;;5123470;27;20059;-57
2023/08/17 12:07:35;;;;;;;0.98;0.88;;;30.00;99.90;;;;;;5121288;27;20055;-57
2023/08/17 12:10:03;;;;;;;1.60;0.77;;;30.50;99.90;;;;;;5105772;27;20136;-57
2023/08/17 12:12:29;;;;;;;2.88;1.20;;;29.40;99.90;;;;;;5123145;27;20083;-57
2023/08/17 12:14:55;;;;;;;2.47;1.50;;;30.40;99.90;;;;;;5106176;27;20577;-56
2023/08/17 12:17:21;;;;;;;2.58;1.10;;;28.80;99.90;;;;;;5123982;27;20781;-57
2023/08/17 12:19:54;;;;;;;2.25;0.90;;;29.30;99.90;;;;;;5102548;27;20138;-57
2023/08/17 12:22:25;;;;;;;3.55;1.15;;;28.10;99.90;;;;;;5099726;28;20051;-57
2023/08/17 12:24:51;;;;;;;1.67;1.00;;;27.90;99.90;;;;;;5100820;27;20063;-57
2023/08/17 12:27:18;;;;;;;1.83;0.95;;;28.10;99.90;;;;;;5102706;28;20584;-58
2023/08/17 12:29:51;;;;;;;1.00;0.90;;;27.60;99.90;;;;;;5087463;28;20090;-57
2023/08/17 12:32:18;;;;;;;1.40;1.23;;;27.10;99.90;;;;;;5099161;27;20136;-58
2023/08/17 12:34:44;;;;;;;1.85;1.20;;;26.40;99.90;;;;;;5097289;28;20532;-57
2023/08/17 12:37:11;;;;;;;1.10;0.98;;;26.80;99.90;;;;;;5083379;28;20047;-59
2023/08/17 12:39:37;;;;;;;3.10;1.23;;;26.70;99.90;;;;;;5101261;27;20091;-59
2023/08/17 12:42:03;;;;;;;1.00;0.90;;;26.10;99.90;;;;;;5099751;28;20103;-65
2023/08/17 12:44:29;;;;;;;4.38;1.02;;;25.60;99.90;;;;;;5100795;28;20086;-57
2023/08/17 12:46:55;;;;;;;3.97;2.38;;;25.20;99.90;;;;;;5088955;28;20078;-57
2023/08/17 12:49:21;;;;;;;3.90;1.23;;;25.00;99.90;;;;;;5099997;28;20067;-57
2023/08/17 12:51:47;;;;;;;3.15;1.58;;;24.80;99.90;;;;;;5097033;28;20060;-57